• pl
  • eng

Awiacja
TAF FC 08:07 16.12.2017

TAF EPLB 160530Z 1606/1615 32006KT 9999 BKN010
PROB40 TEMPO 1609/1615 4500 -SN BR BKN007=

TAF EPRA 160530Z 1606/1615 32008KT 2000 BR BKN005 OVC010
TEMPO 1606/1609 1000 -DZ BR OVC003
BECMG 1609/1611 6000 BKN012=

TAF EPSY 160705Z 1607/1615 24006KT 4000 BR BKN005 OVC010
TEMPO 1607/1611 2000 BR OVC003
PROB30 TEMPO 1608/1610 0800 FZFG OVC001
BECMG 1611/1613 8000 BKN007=

TAF EPZG 160530Z 1606/1615 21005KT 6000 SCT005 BKN025
TEMPO 1606/1609 2000 BR BKN002
TEMPO 1612/1615 4000 -SHRA -SHRASN BR BKN004 BKN014CB=
Awiacja.imgw.pl jest pogodowym serwisem informacyjnym
Instytutu Meteorologii i Gospodarki Wodnej Państwowego Instytutu Badawczego.
Copyright IMGW PIB 2009-2011© Wszelkie prawa zastrzeżone.